Time;durP1;ratioP1;P1;durP2;ratioP2;P2;SDS_P1;SDS_P2;PMS_P1;PMS_P2;Temp;Humidity;BMP_temperature;BMP_pressure;BME280_temperature;BME280_humidity;BME280_pressure;Samples;Min_cycle;Max_cycle;Signal;HPM_P1;HPM_P2
2022/01/14 00:02:01;;;;;;;;;40.33;38.00;;;;;3.06;79.21;103103.81;5161187;27;45361;-79
2022/01/14 00:04:27;;;;;;;;;45.00;41.00;;;;;3.03;79.62;103112.31;5161392;27;45454;-79
2022/01/14 00:06:53;;;;;;;;;46.00;42.00;;;;;2.92;79.34;103078.44;5161146;27;45833;-81
2022/01/14 00:09:22;;;;;;;;;44.00;39.33;;;;;3.03;79.23;103098.38;5160655;27;45280;-82
2022/01/14 00:11:57;;;;;;;;;46.67;41.33;;;;;3.09;79.60;103104.06;5160740;27;45351;-81
2022/01/14 00:14:57;;;;;;;;;46.00;40.33;;;;;3.07;79.22;103103.00;5161710;27;45381;-80
2022/01/14 00:17:23;;;;;;;;;44.67;41.00;;;;;3.01;79.32;103105.16;5160750;27;45415;-79
2022/01/14 00:19:49;;;;;;;;;53.67;43.33;;;;;3.05;79.42;103104.59;5160663;27;45438;-81
2022/01/14 00:22:17;;;;;;;;;51.00;44.00;;;;;3.06;79.75;103107.31;5160703;27;45444;-80
2022/01/14 00:33:05;;;;;;;;;45.67;41.33;;;;;3.12;79.80;103109.50;5140009;27;45418;-81
2022/01/14 00:35:32;;;;;;;;;47.67;40.67;;;;;3.10;79.63;103100.66;5140088;27;45436;-78
2022/01/14 00:38:01;;;;;;;;;55.67;44.00;;;;;3.10;79.44;103114.59;5140004;27;45386;-79
2022/01/14 00:40:27;;;;;;;;;44.67;40.67;;;;;2.79;79.38;103053.16;5120990;27;45314;-78
2022/01/14 00:42:56;;;;;;;;;52.00;43.00;;;;;3.12;79.24;103114.69;5121413;27;45558;-79
2022/01/14 00:45:23;;;;;;;;;57.33;44.00;;;;;3.10;79.50;103111.97;5124260;27;45477;-81
2022/01/14 00:47:48;;;;;;;;;46.33;43.00;;;;;3.11;79.26;103105.06;5143677;27;45181;-81
2022/01/14 00:50:16;;;;;;;;;55.33;46.00;;;;;3.03;79.77;103074.94;5144034;27;45444;-80
2022/01/14 00:52:43;;;;;;;;;56.00;44.67;;;;;3.12;79.34;103088.66;5124555;27;45300;-79
2022/01/14 00:55:15;;;;;;;;;45.00;41.67;;;;;3.11;79.67;103086.84;5143827;27;45430;-81
2022/01/14 01:00:31;;;;;;;;;51.67;42.67;;;;;3.10;79.26;103098.06;5143001;27;45367;-81
2022/01/14 01:03:01;;;;;;;;;54.67;44.33;;;;;2.85;79.46;103057.13;5143191;27;45212;-81
2022/01/14 01:05:28;;;;;;;;;47.33;41.33;;;;;2.84;79.61;103042.31;5143418;27;45324;-78
2022/01/14 01:08:08;;;;;;;;;48.00;42.00;;;;;3.08;79.55;103087.53;5143061;27;47218;-79
2022/01/14 01:10:46;;;;;;;;;53.67;45.33;;;;;2.92;79.26;103058.53;5142555;27;45245;-80
2022/01/14 01:13:26;;;;;;;;;48.33;43.67;;;;;3.08;79.68;103092.75;5143534;27;45297;-81
2022/01/14 01:15:53;;;;;;;;;52.67;41.00;;;;;3.07;79.29;103092.59;5142626;27;45229;-80
2022/01/14 01:18:19;;;;;;;;;52.33;42.33;;;;;2.92;79.39;103070.63;5143102;27;45418;-79
2022/01/14 01:20:45;;;;;;;;;49.67;41.00;;;;;2.96;79.47;103094.38;5143061;27;45339;-82
2022/01/14 01:23:11;;;;;;;;;56.33;42.33;;;;;3.03;79.67;103101.88;5143174;27;45527;-81
2022/01/14 01:25:42;;;;;;;;;48.33;44.00;;;;;3.02;79.00;103096.56;5143386;27;45354;-80
2022/01/14 01:28:07;;;;;;;;;45.67;39.67;;;;;2.99;79.59;103096.34;5143175;27;45259;-80
2022/01/14 01:33:01;;;;;;;;;41.00;39.00;;;;;2.99;79.84;103089.44;5142951;27;45370;-80
2022/01/14 01:35:30;;;;;;;;;52.67;45.33;;;;;2.91;79.28;103074.94;5143125;27;45458;-79
2022/01/14 01:37:55;;;;;;;;;50.00;42.67;;;;;2.97;79.47;103085.78;5142497;27;46422;-80
2022/01/14 01:40:26;;;;;;;;;49.00;42.33;;;;;2.60;79.33;103030.03;5140088;27;45316;-80
2022/01/14 01:42:54;;;;;;;;;48.67;44.00;;;;;2.94;79.32;103095.97;5104015;27;45356;-79
2022/01/14 01:45:24;;;;;;;;;44.00;40.67;;;;;2.67;79.91;103044.44;5123411;27;45205;-80
2022/01/14 01:47:51;;;;;;;;;42.67;38.67;;;;;2.60;79.55;103032.63;5123052;27;45348;-81
2022/01/14 01:50:20;;;;;;;;;52.33;46.00;;;;;2.84;79.55;103083.97;5122358;27;46144;-81
2022/01/14 01:52:46;;;;;;;;;41.00;39.00;;;;;2.66;79.83;103059.13;5123160;27;45229;-80
2022/01/14 01:55:13;;;;;;;;;48.67;40.33;;;;;2.90;79.89;103100.84;5123225;27;45190;-80
2022/01/14 01:57:41;;;;;;;;;45.00;42.67;;;;;2.56;79.36;103036.72;5121431;27;45479;-80
2022/01/14 02:00:08;;;;;;;;;47.67;42.00;;;;;2.86;79.51;103078.88;5121188;27;45384;-80
2022/01/14 02:02:36;;;;;;;;;51.67;45.67;;;;;2.75;79.34;103062.44;5121084;27;45290;-78
2022/01/14 02:05:03;;;;;;;;;41.67;36.33;;;;;2.69;79.40;103055.84;5120255;27;45242;-80
2022/01/14 02:07:30;;;;;;;;;42.00;39.67;;;;;2.80;79.44;103076.72;5121236;27;46288;-80
2022/01/14 02:09:55;;;;;;;;;50.33;45.00;;;;;2.64;79.71;103049.41;5119506;27;45336;-80
2022/01/14 02:12:21;;;;;;;;;53.00;41.00;;;;;2.71;79.56;103050.00;5120934;27;45335;-80
2022/01/14 02:15:08;;;;;;;;;43.00;40.67;;;;;2.81;80.32;103062.00;5121359;27;45258;-80
2022/01/14 02:18:13;;;;;;;;;46.00;40.67;;;;;2.77;79.81;103055.66;5120471;27;45452;-80
2022/01/14 02:23:17;;;;;;;;;43.33;40.00;;;;;2.80;79.87;103058.50;5120598;27;45242;-78
2022/01/14 02:25:44;;;;;;;;;23.67;22.00;;;;;2.65;79.38;103038.22;5120740;27;45230;-80
2022/01/14 02:28:13;;;;;;;;;41.00;38.00;;;;;2.83;79.79;103069.13;5119880;27;46516;-80
2022/01/14 02:30:40;;;;;;;;;56.33;36.67;;;;;2.83;79.82;103069.13;5120572;27;45365;-80
2022/01/14 02:33:07;;;;;;;;;52.00;44.33;;;;;2.66;79.94;103034.81;5120655;27;45253;-81
2022/01/14 02:35:34;;;;;;;;;43.67;39.00;;;;;2.73;79.72;103051.00;5129841;27;45274;-80
2022/01/14 02:38:00;;;;;;;;;47.00;38.00;;;;;2.63;79.32;103024.19;5122508;27;48505;-78
2022/01/14 02:40:26;;;;;;;;;30.00;27.00;;;;;2.51;79.50;103005.91;5141305;27;45405;-78
2022/01/14 02:42:54;;;;;;;;;50.67;38.67;;;;;2.65;79.34;103026.09;5140906;27;45508;-80
2022/01/14 02:45:21;;;;;;;;;41.00;37.33;;;;;2.71;79.59;103043.88;5122828;27;45299;-81
2022/01/14 02:47:47;;;;;;;;;41.33;37.67;;;;;2.75;79.63;103052.03;5141197;27;45389;-80
2022/01/14 02:50:17;;;;;;;;;46.33;42.00;;;;;2.78;79.56;103043.53;5140492;27;45310;-80
2022/01/14 02:52:53;;;;;;;;;48.00;42.67;;;;;2.59;79.82;103012.63;5141501;27;45254;-80
2022/01/14 02:55:22;;;;;;;;;43.67;36.67;;;;;2.72;80.08;103041.41;5141044;27;45387;-80
2022/01/14 02:57:51;;;;;;;;;55.00;45.67;;;;;2.77;79.78;103039.13;5141012;27;46201;-81
2022/01/14 03:00:21;;;;;;;;;49.00;44.00;;;;;2.70;79.69;103029.97;5141188;27;45354;-80
2022/01/14 03:02:50;;;;;;;;;39.67;37.67;;;;;2.75;80.14;103041.63;5140780;27;45237;-80
2022/01/14 03:05:17;;;;;;;;;33.00;33.00;;;;;2.73;79.58;103038.00;5140946;27;45306;-79
2022/01/14 03:07:43;;;;;;;;;40.33;35.67;;;;;2.67;80.29;103029.72;5139211;27;46714;-81
2022/01/14 03:10:11;;;;;;;;;58.00;43.00;;;;;2.66;79.58;103024.41;5141036;27;45319;-80
2022/01/14 03:12:37;;;;;;;;;43.33;43.00;;;;;2.42;80.11;102969.72;5141082;27;45424;-81
2022/01/14 03:15:04;;;;;;;;;54.33;43.00;;;;;2.43;79.81;102952.44;5141065;27;45217;-80
2022/01/14 03:17:30;;;;;;;;;46.00;42.33;;;;;2.37;80.38;102949.34;5140708;27;46893;-81
2022/01/14 03:19:58;;;;;;;;;47.00;44.67;;;;;2.57;80.22;102981.28;5140712;27;45755;-80
2022/01/14 03:22:31;;;;;;;;;42.00;35.00;;;;;2.47;79.69;102959.66;5140689;27;45281;-80
2022/01/14 03:27:22;;;;;;;;;49.00;42.33;;;;;2.72;79.64;103004.97;5140153;27;45319;-80
2022/01/14 03:29:48;;;;;;;;;52.67;44.00;;;;;2.74;79.55;103010.28;5140513;27;45417;-81
2022/01/14 03:32:14;;;;;;;;;43.00;34.00;;;;;2.56;79.79;102974.25;5140796;27;45368;-80
2022/01/14 03:34:40;;;;;;;;;53.67;42.33;;;;;2.70;79.82;102997.81;5139381;27;45355;-80
2022/01/14 03:37:06;;;;;;;;;32.67;27.67;;;;;2.50;79.73;102971.19;5119496;27;46109;-80
2022/01/14 03:39:32;;;;;;;;;51.67;45.33;;;;;2.62;79.66;102986.84;5119319;27;45219;-81
2022/01/14 03:41:57;;;;;;;;;49.33;43.00;;;;;2.69;79.36;103006.41;5119553;27;45364;-81
2022/01/14 03:44:23;;;;;;;;;57.33;45.33;;;;;2.43;79.82;102953.34;5119856;27;45228;-80
2022/01/14 03:46:48;;;;;;;;;51.67;45.67;;;;;2.73;79.64;103011.97;5119313;27;46056;-78
2022/01/14 03:49:14;;;;;;;;;48.33;43.33;;;;;2.44;79.21;102962.03;5138311;27;45294;-80
2022/01/14 03:51:41;;;;;;;;;43.00;42.00;;;;;2.54;79.78;102980.16;5140352;27;45365;-80
2022/01/14 03:54:07;;;;;;;;;50.00;41.00;;;;;2.58;79.68;102984.78;5139956;27;45403;-79
2022/01/14 03:56:32;;;;;;;;;56.00;46.00;;;;;2.55;79.61;102981.97;5139791;27;45588;-79
2022/01/14 03:58:58;;;;;;;;;55.67;43.00;;;;;2.62;79.42;102997.25;5140188;27;45324;-80
2022/01/14 04:01:24;;;;;;;;;41.00;34.67;;;;;2.42;79.35;102955.78;5139881;27;45339;-80
2022/01/14 04:03:50;;;;;;;;;55.00;46.00;;;;;2.70;79.66;103003.00;5121564;27;45396;-80
2022/01/14 04:06:16;;;;;;;;;51.33;42.33;;;;;2.57;79.49;102977.78;5139682;27;46081;-80
2022/01/14 04:08:42;;;;;;;;;50.67;42.67;;;;;2.65;79.71;102988.75;5139893;27;45381;-80
2022/01/14 04:11:09;;;;;;;;;42.33;39.67;;;;;2.66;79.66;103003.59;5139676;27;45521;-81
2022/01/14 04:16:09;;;;;;;;;45.67;40.33;;;;;2.65;79.78;103005.28;5139468;27;45343;-80
2022/01/14 04:18:35;;;;;;;;;51.00;44.67;;;;;2.64;79.53;103012.97;5137571;27;45636;-81
2022/01/14 04:21:01;;;;;;;;;43.00;41.00;;;;;2.42;79.25;102969.72;5139914;27;45273;-77
2022/01/14 04:23:26;;;;;;;;;43.33;41.33;;;;;2.51;79.62;102993.84;5121438;27;45538;-78
2022/01/14 04:25:53;;;;;;;;;47.00;43.00;;;;;2.60;79.70;103010.91;5139231;27;45340;-80
2022/01/14 04:28:21;;;;;;;;;50.33;42.67;;;;;2.42;79.82;102976.59;5139402;27;45372;-80
2022/01/14 04:30:48;;;;;;;;;44.67;42.33;;;;;2.44;79.76;102993.25;5139465;27;45423;-80
2022/01/14 04:33:14;;;;;;;;;43.00;41.67;;;;;2.50;79.15;102997.22;5139596;27;45273;-81
2022/01/14 04:35:40;;;;;;;;;56.67;46.67;;;;;2.35;79.46;102961.34;5129338;27;45382;-81
2022/01/14 04:38:06;;;;;;;;;45.33;44.00;;;;;2.55;79.37;103003.69;5118605;27;45370;-80
2022/01/14 04:40:32;;;;;;;;;50.33;46.33;;;;;2.40;79.64;102958.28;5118749;27;45246;-81
2022/01/14 04:42:59;;;;;;;;;44.67;38.00;;;;;2.32;80.01;102940.28;5118840;27;45349;-81
2022/01/14 04:48:05;;;;;;;;;63.00;46.00;;;;;2.55;80.00;102989.78;5130876;27;45356;-79
2022/01/14 04:50:31;;;;;;;;;50.00;41.33;;;;;2.35;80.08;102945.75;5125054;27;45558;-80
2022/01/14 04:52:57;;;;;;;;;62.67;49.67;;;;;2.32;79.52;102942.88;5134223;27;45414;-81
2022/01/14 04:55:24;;;;;;;;;50.67;44.33;;;;;2.37;79.86;102942.44;5121835;27;46133;-81
2022/01/14 04:57:51;;;;;;;;;49.67;44.33;;;;;2.16;79.05;102909.63;5124652;27;45525;-79
2022/01/14 05:00:20;;;;;;;;;48.33;43.67;;;;;2.53;79.75;102971.44;5126707;27;45431;-80
2022/01/14 05:02:45;;;;;;;;;57.00;42.33;;;;;2.23;79.37;102918.03;5132514;27;45492;-79
2022/01/14 05:05:11;;;;;;;;;50.33;42.33;;;;;2.27;79.72;102925.25;5134003;27;45758;-80
2022/01/14 05:07:38;;;;;;;;;52.33;45.33;;;;;2.15;79.63;102903.53;5120794;27;45625;-79
2022/01/14 05:12:33;;;;;;;;;58.67;48.00;;;;;2.25;79.56;102929.44;5136999;27;45422;-80
2022/01/14 05:14:59;;;;;;;;;65.00;49.33;;;;;2.33;79.69;102947.28;5120033;27;47243;-80
2022/01/14 05:17:24;;;;;;;;;53.67;43.00;;;;;2.34;79.20;102952.63;5138796;27;45301;-81
2022/01/14 05:19:50;;;;;;;;;47.67;41.33;;;;;2.47;79.32;102972.66;5138930;27;45264;-80
2022/01/14 05:22:17;;;;;;;;;52.00;44.67;;;;;2.41;79.43;102960.09;5138956;27;45327;-80
2022/01/14 05:24:43;;;;;;;;;60.00;50.00;;;;;2.28;79.38;102934.84;5138556;27;46302;-78
2022/01/14 05:27:08;;;;;;;;;61.67;48.67;;;;;2.33;79.93;102940.44;5138619;27;45460;-80
2022/01/14 05:29:34;;;;;;;;;57.33;48.67;;;;;2.26;79.59;102926.03;5139141;27;45683;-79
2022/01/14 05:32:04;;;;;;;;;51.67;45.00;;;;;2.35;80.15;102966.53;5142398;27;45271;-80
2022/01/14 05:34:33;;;;;;;;;47.00;43.00;;;;;2.40;80.29;102958.28;5142184;27;45280;-78
2022/01/14 05:37:01;;;;;;;;;54.00;46.33;;;;;2.46;79.69;102973.47;5121130;27;45324;-79
2022/01/14 05:39:27;;;;;;;;;60.33;50.00;;;;;2.47;79.41;102975.28;5121589;27;45220;-80
2022/01/14 05:41:53;;;;;;;;;68.67;51.00;;;;;2.10;80.14;102925.66;5121721;27;45318;-79
2022/01/14 05:44:19;;;;;;;;;56.67;48.33;;;;;2.24;79.57;102947.53;5121310;27;46158;-78
2022/01/14 05:46:46;;;;;;;;;58.33;45.33;;;;;2.45;79.46;102988.16;5121352;27;45360;-76
2022/01/14 05:49:12;;;;;;;;;34.67;32.33;;;;;2.32;79.91;102968.88;5121367;27;45354;-79
2022/01/14 05:51:37;;;;;;;;;55.33;47.67;;;;;2.44;79.64;102993.25;5121418;27;45376;-80
2022/01/14 05:54:03;;;;;;;;;56.00;48.00;;;;;2.37;79.74;102980.56;5120688;27;46190;-80
2022/01/14 05:56:28;;;;;;;;;61.67;46.67;;;;;2.44;79.92;102999.38;5120970;27;45285;-80
2022/01/14 05:58:54;;;;;;;;;56.00;43.00;;;;;2.45;79.41;102982.06;5121126;27;45399;-81
2022/01/14 06:01:20;;;;;;;;;55.33;45.33;;;;;2.25;79.80;102955.44;5102486;27;45270;-81
2022/01/14 06:03:46;;;;;;;;;51.67;45.00;;;;;2.21;80.17;102945.56;5121110;27;45257;-79
2022/01/14 06:06:11;;;;;;;;;49.33;42.33;;;;;2.04;79.57;102911.28;5120862;27;45286;-79
2022/01/14 06:08:37;;;;;;;;;52.67;47.00;;;;;2.07;79.50;102925.44;5120868;27;45204;-80
2022/01/14 06:11:02;;;;;;;;;60.67;46.00;;;;;2.23;79.92;102949.22;5121289;27;45179;-79
2022/01/14 06:13:27;;;;;;;;;54.67;46.00;;;;;2.27;79.88;102961.66;5120670;27;45348;-81
2022/01/14 06:15:53;;;;;;;;;49.33;45.67;;;;;2.25;79.70;102952.84;5121006;27;45313;-81
2022/01/14 06:18:18;;;;;;;;;43.67;36.33;;;;;2.42;79.61;102979.19;5121121;27;45331;-80
2022/01/14 06:20:44;;;;;;;;;65.00;50.67;;;;;2.39;79.89;102974.69;5120791;27;45230;-80
2022/01/14 06:23:09;;;;;;;;;51.67;45.33;;;;;2.19;80.14;102954.97;5120522;27;46465;-81
2022/01/14 06:25:34;;;;;;;;;63.33;49.00;;;;;2.11;80.27;102934.34;5120201;27;45337;-81
2022/01/14 06:28:00;;;;;;;;;60.33;46.00;;;;;2.21;80.09;102950.78;5120629;27;45999;-80
2022/01/14 06:30:26;;;;;;;;;45.33;42.33;;;;;2.33;80.27;102971.63;5120866;27;45330;-81
2022/01/14 06:32:53;;;;;;;;;61.33;45.00;;;;;2.31;80.17;102978.38;5120462;27;45332;-81
2022/01/14 06:35:19;;;;;;;;;51.67;45.67;;;;;2.17;80.69;102946.16;5127260;27;45376;-78
2022/01/14 06:37:44;;;;;;;;;57.33;47.67;;;;;2.35;80.36;102971.75;5141260;27;45414;-79
2022/01/14 06:40:11;;;;;;;;;52.67;42.33;;;;;2.45;80.71;102982.06;5141203;27;45394;-80
2022/01/14 06:42:37;;;;;;;;;56.67;43.00;;;;;2.34;79.94;102949.13;5140031;27;46558;-81
2022/01/14 06:45:05;;;;;;;;;42.67;37.33;;;;;2.32;80.72;102948.09;5141199;27;45312;-78
2022/01/14 06:47:31;;;;;;;;;63.00;49.00;;;;;2.43;80.64;102963.75;5141185;27;45421;-80
2022/01/14 06:49:56;;;;;;;;;44.00;35.00;;;;;2.25;80.47;102932.03;5141606;27;45351;-81
2022/01/14 06:52:22;;;;;;;;;51.67;44.00;;;;;2.38;79.75;102948.56;5141082;27;45428;-79
2022/01/14 06:54:48;;;;;;;;;50.67;43.00;;;;;2.52;80.00;102973.94;5140746;27;45473;-80
2022/01/14 06:57:14;;;;;;;;;45.00;40.00;;;;;2.53;80.00;102974.06;5140989;27;45306;-81
2022/01/14 06:59:39;;;;;;;;;51.33;42.33;;;;;2.55;80.51;102969.84;5141027;27;45378;-80
2022/01/14 07:02:05;;;;;;;;;53.00;45.67;;;;;2.56;80.13;102965.56;5140673;27;47718;-81
2022/01/14 07:04:30;;;;;;;;;54.67;46.33;;;;;2.46;80.18;102950.06;5140733;27;45329;-80
2022/01/14 07:06:56;;;;;;;;;45.00;42.00;;;;;2.58;80.34;102969.19;5140875;27;45222;-80
2022/01/14 07:09:21;;;;;;;;;52.67;46.67;;;;;2.47;80.40;102946.66;5141147;27;45289;-81
2022/01/14 07:11:52;;;;;;;;;64.33;46.33;;;;;2.29;80.68;102915.84;5140539;27;45555;-79
2022/01/14 07:14:19;;;;;;;;;48.33;43.33;;;;;2.64;80.36;102958.34;5140943;27;45341;-77
2022/01/14 07:16:47;;;;;;;;;50.67;45.00;;;;;2.57;80.34;102951.75;5122059;27;45318;-81
2022/01/14 07:19:12;;;;;;;;;45.00;43.67;;;;;2.67;80.21;102958.56;5140665;27;45235;-81
2022/01/14 07:21:39;;;;;;;;;47.67;41.67;;;;;2.56;80.03;102936.94;5140435;27;45253;-81
2022/01/14 07:24:05;;;;;;;;;51.33;45.67;;;;;2.34;80.56;102898.03;5140752;27;45224;-81
2022/01/14 07:26:31;;;;;;;;;47.00;42.00;;;;;2.44;80.54;102916.13;5121523;27;45458;-81
2022/01/14 07:28:56;;;;;;;;;61.00;48.00;;;;;2.72;79.91;102960.72;5140557;27;45465;-80
2022/01/14 07:31:22;;;;;;;;;55.00;45.33;;;;;2.73;79.73;102948.63;5140247;27;46099;-80
2022/01/14 07:33:47;;;;;;;;;53.67;44.33;;;;;2.41;80.09;102887.25;5139442;27;45327;-80
2022/01/14 07:36:12;;;;;;;;;54.33;44.00;;;;;2.54;80.90;102916.00;5140300;27;45343;-81
2022/01/14 07:38:38;;;;;;;;;44.67;37.33;;;;;2.42;80.72;102888.16;5140511;27;45294;-80
2022/01/14 07:41:04;;;;;;;;;52.00;45.00;;;;;2.80;80.35;102966.50;5140104;27;45346;-79
2022/01/14 07:43:29;;;;;;;;;43.67;41.67;;;;;2.66;80.11;102939.44;5140241;27;45397;-79
2022/01/14 07:45:55;;;;;;;;;51.00;46.33;;;;;2.74;80.46;102940.00;5121165;27;45293;-80
2022/01/14 07:48:21;;;;;;;;;47.33;43.33;;;;;2.65;80.24;102919.41;5140359;27;45231;-80
2022/01/14 07:50:47;;;;;;;;;49.00;46.00;;;;;2.72;80.56;102931.19;5139828;27;45320;-81
2022/01/14 07:53:13;;;;;;;;;50.00;43.33;;;;;2.86;80.01;102956.53;5140093;27;45151;-81
2022/01/14 07:55:39;;;;;;;;;47.67;42.67;;;;;2.86;80.22;102954.81;5140042;27;45240;-80
2022/01/14 07:58:05;;;;;;;;;51.00;42.00;;;;;2.64;80.17;102920.22;5140395;27;45248;-79
2022/01/14 08:00:31;;;;;;;;;51.67;45.67;;;;;2.87;80.28;102955.72;5137613;27;46579;-81
2022/01/14 08:02:57;;;;;;;;;42.00;36.00;;;;;3.05;79.86;102971.81;5149482;27;45479;-82
2022/01/14 08:05:23;;;;;;;;;27.33;26.00;;;;;3.09;79.67;102976.47;5139761;27;45288;-77
2022/01/14 08:07:51;;;;;;;;;49.33;42.67;;;;;3.04;79.38;102960.47;5120450;27;45381;-76
2022/01/14 08:10:17;;;;;;;;;47.00;42.33;;;;;2.98;79.63;102941.84;5139481;27;45395;-75
2022/01/14 08:12:43;;;;;;;;;44.00;39.33;;;;;3.16;79.72;102965.69;5139348;27;45274;-76
2022/01/14 08:15:09;;;;;;;;;52.00;45.00;;;;;3.16;79.73;102970.88;5139569;27;45230;-76
2022/01/14 08:17:35;;;;;;;;;55.00;47.33;;;;;3.07;79.51;102942.50;5139902;27;45259;-76
2022/01/14 08:20:01;;;;;;;;;55.00;45.00;;;;;3.30;79.49;102975.41;5139672;27;47546;-78
2022/01/14 08:22:28;;;;;;;;;49.67;43.33;;;;;3.21;79.26;102953.91;5139201;27;45340;-77
2022/01/14 08:24:54;;;;;;;;;64.33;49.67;;;;;3.37;79.42;102985.50;5129649;27;45442;-79
2022/01/14 08:27:19;;;;;;;;;57.00;48.67;;;;;3.28;79.37;102970.91;5134221;27;45573;-78
2022/01/14 08:29:47;;;;;;;;;63.67;48.67;;;;;3.27;79.32;102956.97;5139137;27;46567;-80
2022/01/14 08:32:13;;;;;;;;;58.00;45.00;;;;;3.33;78.56;102965.19;5139449;27;45298;-80
2022/01/14 08:34:38;;;;;;;;;60.00;48.67;;;;;3.42;78.27;102973.69;5139680;27;45308;-81
2022/01/14 08:37:04;;;;;;;;;58.33;49.00;;;;;3.43;78.50;102959.84;5117600;27;45296;-81
2022/01/14 08:39:29;;;;;;;;;58.67;47.00;;;;;3.58;78.04;102983.53;5118793;27;45250;-83
2022/01/14 08:41:55;;;;;;;;;59.67;46.67;;;;;3.51;78.00;102965.63;5118061;27;45417;-81
2022/01/14 08:44:21;;;;;;;;;55.67;48.33;;;;;3.42;78.07;102945.03;5124387;27;45188;-83
2022/01/14 08:46:46;;;;;;;;;61.33;50.33;;;;;3.48;77.81;102951.47;5138965;27;45275;-79
2022/01/14 08:49:12;;;;;;;;;55.33;49.33;;;;;3.72;78.00;102988.03;5126424;27;45649;-78
2022/01/14 08:51:38;;;;;;;;;52.00;46.67;;;;;3.34;78.24;102917.50;5132956;27;45386;-83
2022/01/14 08:54:04;;;;;;;;;61.67;46.67;;;;;3.61;77.98;102954.16;5136401;27;45347;-88
2022/01/14 08:56:31;;;;;;;;;58.00;49.33;;;;;3.84;77.25;102989.69;5138271;27;45489;-84
2022/01/14 08:58:57;;;;;;;;;54.33;46.67;;;;;3.89;76.90;103004.84;5112895;27;46881;-85
2022/01/14 09:01:23;;;;;;;;;64.33;50.00;;;;;3.93;77.16;102986.03;5133878;27;45309;-82
2022/01/14 09:03:48;;;;;;;;;52.67;47.00;;;;;3.32;77.21;102887.84;5126927;27;45225;-85
2022/01/14 09:06:14;;;;;;;;;60.00;48.00;;;;;3.68;76.66;102935.56;5108593;27;45253;-85
2022/01/14 09:08:49;;;;;;;;;50.67;44.33;;;;;3.14;77.13;102824.03;5134188;27;46645;-81
2022/01/14 09:11:15;;;;;;;;;61.00;49.67;;;;;3.93;76.95;102972.09;5140946;27;45400;-81
2022/01/14 09:13:41;;;;;;;;;52.00;45.67;;;;;4.07;76.60;102968.72;5142015;27;45298;-85
2022/01/14 09:16:06;;;;;;;;;59.33;49.33;;;;;4.17;76.57;102985.91;5144234;27;45381;-80
2022/01/14 09:18:32;;;;;;;;;59.00;48.00;;;;;3.87;75.97;102912.56;5143131;27;46232;-87
2022/01/14 09:20:58;;;;;;;;;60.33;46.33;;;;;3.85;76.28;102905.47;5140837;27;45466;-80
2022/01/14 09:23:25;;;;;;;;;56.67;44.67;;;;;3.95;76.47;102915.72;5136957;27;45474;-80
2022/01/14 09:25:54;;;;;;;;;44.00;42.00;;;;;4.04;76.06;102910.22;5122718;27;45484;-79
2022/01/14 09:28:21;;;;;;;;;57.67;43.67;;;;;4.15;75.42;102927.53;5139462;27;45658;-78
2022/01/14 09:30:47;;;;;;;;;52.33;44.67;;;;;4.26;74.85;102929.16;5111925;27;45568;-82
2022/01/14 09:33:16;;;;;;;;;48.67;44.00;;;;;4.43;75.21;102923.38;5134495;27;46433;-84
2022/01/14 09:35:41;;;;;;;;;54.33;45.67;;;;;5.91;71.72;102971.31;5121639;27;45388;-83
2022/01/14 09:38:07;;;;;;;;;60.00;48.33;;;;;7.93;65.49;102835.25;5131819;27;45976;-82
2022/01/14 09:40:32;;;;;;;;;60.33;47.67;;;;;12.47;54.37;102961.41;5136761;27;45495;-80
2022/01/14 09:43:01;;;;;;;;;62.67;46.33;;;;;14.70;47.81;102862.16;5139854;27;46280;-83
2022/01/14 09:45:28;;;;;;;;;62.00;52.33;;;;;16.88;42.34;102881.69;5141526;27;45368;-85
2022/01/14 09:47:55;;;;;;;;;54.75;47.00;;;;;18.68;38.95;102931.94;5122614;27;46645;-82
2022/01/14 09:50:21;;;;;;;;;77.50;58.75;;;;;20.09;36.25;102962.22;5114273;27;45496;-82
2022/01/14 09:52:50;;;;;;;;;55.00;45.25;;;;;21.04;33.85;102924.00;5132567;27;45454;-88
2022/01/14 09:55:16;;;;;;;;;56.00;46.75;;;;;;;;5106293;27;45512;-82
2022/01/14 09:57:41;;;;;;;;;52.00;43.00;;;;;21.93;31.18;102859.34;5137319;27;46461;-87
2022/01/14 10:00:08;;;;;;;;;52.25;44.25;;;;;21.10;32.58;102949.88;5108377;27;45726;-85
2022/01/14 10:02:38;;;;;;;;;52.00;43.00;;;;;19.66;35.01;102950.47;5103815;27;45393;-84
2022/01/14 10:05:06;;;;;;;;;53.75;44.25;;;;;20.81;33.18;102933.84;5104049;27;45357;-89
2022/01/14 10:07:33;;;;;;;;;58.25;46.00;;;;;22.11;31.08;102917.44;5123530;27;46336;-84
2022/01/14 10:10:00;;;;;;;;;51.00;42.75;;;;;23.30;29.16;102937.97;5131841;27;45415;-84
2022/01/14 10:12:31;;;;;;;;;51.75;43.00;;;;;23.90;28.83;102932.78;5141642;27;45419;-85
2022/01/14 10:15:06;;;;;;;;;51.50;41.25;;;;;24.57;27.26;102921.09;5122913;27;45444;-83
2022/01/14 10:17:43;;;;;;;;;52.00;43.00;;;;;25.44;26.29;102945.63;5140655;27;45486;-81
2022/01/14 10:20:11;;;;;;;;;51.75;43.75;;;;;25.51;25.44;102891.50;5141066;27;45391;-83
2022/01/14 10:22:44;;;;;;;;;49.50;40.50;;;;;25.28;25.77;102874.88;5141371;27;45233;-83
2022/01/14 10:25:13;;;;;;;;;55.50;44.50;;;;;22.82;27.68;102961.69;5122362;27;45485;-83
2022/01/14 10:27:41;;;;;;;;;50.25;42.00;;;;;21.05;29.88;102899.00;5122492;27;45650;-83
2022/01/14 10:30:14;;;;;;;;;54.00;43.00;;;;;22.52;28.77;102918.94;5158415;27;45341;-80
2022/01/14 10:32:41;;;;;;;;;45.50;38.75;;;;;21.61;29.44;102924.78;5162276;27;45175;-82
2022/01/14 10:35:13;;;;;;;;;46.50;35.00;;;;;19.49;32.00;102903.13;5167107;27;45397;-87
2022/01/14 10:37:38;;;;;;;;;48.00;39.75;;;;;18.26;33.58;102926.16;5168158;27;46254;-89
2022/01/14 10:40:11;;;;;;;;;49.25;39.00;;;;;17.23;35.64;102908.84;5168504;27;45252;-88
2022/01/14 10:42:37;;;;;;;;;46.50;39.25;;;;;17.14;36.66;102958.41;5167512;27;45187;-89
2022/01/14 10:45:22;;;;;;;;;42.00;35.25;;;;;18.17;34.90;102961.63;5166555;27;45216;-90
2022/01/14 10:47:54;;;;;;;;;48.75;40.50;;;;;20.93;31.28;103011.53;5161832;27;47245;-83
2022/01/14 10:50:26;;;;;;;;;45.50;38.25;;;;;22.65;28.70;102993.19;5163494;27;45305;-87
2022/01/14 10:52:52;;;;;;;;;46.00;36.00;;;;;24.06;26.67;103034.00;5149728;27;45418;-90
2022/01/14 10:55:34;;;;;;;;;36.00;30.50;;;;;23.95;24.59;103025.19;5147961;27;45261;-91
2022/01/14 10:58:02;;;;;;;;;46.25;39.00;;;;;24.17;25.18;102996.16;5144366;27;46958;-86
2022/01/14 11:00:38;;;;;;;;;39.25;35.25;;;;;24.67;24.35;103008.06;5164667;27;45466;-84
2022/01/14 11:03:04;;;;;;;;;43.00;36.00;;;;;25.11;23.65;103038.84;5166919;27;45307;-85
2022/01/14 11:05:31;;;;;;;;;40.67;35.00;;;;;25.02;23.59;103008.41;5168432;27;45390;-86
2022/01/14 11:07:56;;;;;;;;;46.67;38.33;;;;;25.00;23.91;102971.56;5166991;27;45318;-87
2022/01/14 11:10:25;;;;;;;;;47.00;40.00;;;;;24.39;23.65;102865.69;5166246;27;45402;-87
2022/01/14 11:12:55;;;;;;;;;45.00;36.67;;;;;23.47;24.92;102868.75;5164606;27;45337;-88
2022/01/14 11:15:23;;;;;;;;;45.67;38.67;;;;;22.23;26.46;102916.44;5162924;27;45305;-87
2022/01/14 11:17:51;;;;;;;;;42.67;36.33;;;;;20.43;28.22;102832.06;5162969;27;46189;-89
2022/01/14 11:20:24;;;;;;;;;51.00;40.33;;;;;19.66;30.42;102910.38;5162679;27;45438;-85
2022/01/14 11:25:39;;;;;;;;;47.75;40.25;;;;;17.62;33.78;102872.94;5163573;27;45453;-83
2022/01/14 11:28:07;;;;;;;;;45.25;37.75;;;;;17.08;33.88;102852.69;5162436;27;45792;-89
2022/01/14 11:30:35;;;;;;;;;41.75;35.75;;;;;16.78;34.94;102887.72;5164088;27;45289;-86
2022/01/14 11:33:03;;;;;;;;;46.75;39.50;;;;;15.81;35.02;102772.50;5163291;27;45197;-87
2022/01/14 11:35:30;;;;;;;;;46.00;36.00;;;;;15.73;36.18;102809.59;5164207;27;45317;-87
2022/01/14 11:37:55;;;;;;;;;47.75;39.25;;;;;15.79;35.89;102861.97;5163032;27;46305;-91
2022/01/14 11:40:21;;;;;;;;;50.50;41.50;;;;;15.60;37.24;102877.53;5142332;27;45419;-84
2022/01/14 11:42:50;;;;;;;;;48.50;42.00;;;;;14.95;37.92;102804.38;5142606;27;45155;-81
2022/01/14 11:45:15;;;;;;;;;53.75;43.50;;;;;15.02;37.60;102848.78;5161764;27;45281;-83
2022/01/14 11:47:43;;;;;;;;;56.50;45.25;;;;;15.21;38.51;102885.50;5160720;27;45686;-82